createdAt,value
2018-09-03T00:00:29.641Z,0.00
2018-09-03T00:01:29.592Z,0.00
2018-09-03T00:02:29.590Z,0.00
2018-09-03T00:03:29.567Z,0.00
2018-09-03T00:04:29.557Z,0.00
2018-09-03T00:05:29.545Z,0.00
2018-09-03T00:06:29.568Z,0.00
2018-09-03T00:07:29.521Z,0.00
2018-09-03T00:08:29.532Z,0.00
2018-09-03T00:09:29.505Z,0.00
2018-09-03T00:10:29.490Z,0.00
2018-09-03T00:11:29.479Z,0.00
2018-09-03T00:12:29.505Z,0.00
2018-09-03T00:13:29.456Z,0.00
2018-09-03T00:14:29.459Z,0.00
2018-09-03T00:15:29.438Z,0.00
2018-09-03T00:16:29.424Z,0.00
2018-09-03T00:17:29.412Z,0.00
2018-09-03T00:18:29.436Z,0.00
2018-09-03T00:19:29.397Z,0.00
2018-09-03T00:20:29.401Z,0.00
2018-09-03T00:21:29.371Z,0.00
2018-09-03T00:22:29.358Z,0.00
2018-09-03T00:23:29.346Z,0.00
2018-09-03T00:24:29.369Z,0.00
2018-09-03T00:25:29.327Z,0.00
2018-09-03T00:26:29.333Z,0.00
2018-09-03T00:27:29.304Z,0.00
2018-09-03T00:28:29.294Z,0.00
2018-09-03T00:29:29.281Z,0.00
2018-09-03T00:30:29.311Z,0.00
2018-09-03T00:31:29.263Z,0.00
2018-09-03T00:32:29.253Z,0.00
2018-09-03T00:33:29.238Z,0.00
2018-09-03T00:34:29.229Z,0.00
2018-09-03T00:35:29.218Z,0.00
2018-09-03T00:36:29.236Z,0.00
2018-09-03T00:37:29.195Z,0.00
2018-09-03T00:38:29.208Z,0.00
2018-09-03T00:39:29.210Z,0.00
2018-09-03T00:40:29.162Z,0.00
2018-09-03T00:41:29.151Z,0.00
2018-09-03T00:42:29.184Z,0.00
2018-09-03T00:43:29.133Z,0.00
2018-09-03T00:44:29.139Z,0.00
2018-09-03T00:45:29.107Z,0.00
2018-09-03T00:46:29.099Z,0.00
2018-09-03T00:47:29.087Z,0.00
2018-09-03T00:48:29.120Z,0.00
2018-09-03T00:49:29.065Z,0.00
2018-09-03T00:50:29.070Z,0.00
2018-09-03T00:51:29.043Z,0.00
2018-09-03T00:52:29.031Z,0.00
2018-09-03T00:53:29.023Z,0.00
2018-09-03T00:54:29.041Z,0.00
2018-09-03T00:55:29.000Z,0.00
2018-09-03T00:56:29.008Z,0.00
2018-09-03T00:57:28.977Z,0.00
2018-09-03T00:58:28.969Z,0.00
2018-09-03T00:59:28.953Z,0.00
2018-09-03T01:00:28.993Z,0.00
2018-09-03T01:01:28.932Z,0.00
2018-09-03T01:02:28.938Z,0.00
2018-09-03T01:03:28.912Z,0.00
2018-09-03T01:04:28.900Z,0.00
2018-09-03T01:05:28.889Z,0.00
2018-09-03T01:06:28.918Z,0.00
2018-09-03T01:07:28.867Z,0.00
2018-09-03T01:08:28.867Z,0.00
2018-09-03T01:09:28.848Z,0.00
2018-09-03T01:10:28.848Z,0.00
2018-09-03T01:11:28.826Z,0.00
2018-09-03T01:12:28.850Z,0.00
2018-09-03T01:13:28.803Z,0.00
2018-09-03T01:14:28.801Z,0.00
2018-09-03T01:15:28.779Z,0.00
2018-09-03T01:16:28.771Z,0.00
2018-09-03T01:17:28.764Z,0.00
2018-09-03T01:18:28.779Z,0.00
2018-09-03T01:19:28.738Z,0.00
2018-09-03T01:20:28.744Z,0.00
2018-09-03T01:21:28.715Z,0.00
2018-09-03T01:22:28.705Z,0.00
2018-09-03T01:23:28.700Z,0.00
2018-09-03T01:24:28.722Z,0.00
2018-09-03T01:25:28.673Z,0.00
2018-09-03T01:26:28.666Z,0.00
2018-09-03T01:27:28.656Z,0.00
2018-09-03T01:28:28.639Z,0.00
2018-09-03T01:29:28.648Z,0.00
2018-09-03T01:30:28.647Z,0.00
2018-09-03T01:31:28.604Z,0.00
2018-09-03T01:32:28.616Z,0.00
2018-09-03T01:33:28.587Z,0.00
2018-09-03T01:34:28.572Z,0.00
2018-09-03T01:35:28.563Z,0.00
2018-09-03T01:36:28.583Z,0.00
2018-09-03T01:37:28.543Z,0.00
2018-09-03T01:38:28.528Z,0.00
2018-09-03T01:39:28.545Z,0.00
2018-09-03T01:40:28.507Z,0.00
2018-09-03T01:41:28.498Z,0.00
2018-09-03T01:42:28.526Z,0.00
2018-09-03T01:43:28.474Z,0.00
2018-09-03T01:44:28.463Z,0.00
2018-09-03T01:45:28.465Z,0.00
2018-09-03T01:46:28.442Z,0.00
2018-09-03T01:47:28.432Z,0.00
2018-09-03T01:48:28.453Z,0.00
2018-09-03T01:49:28.409Z,0.00
2018-09-03T01:50:28.398Z,0.00
2018-09-03T01:51:28.405Z,0.00
2018-09-03T01:52:28.385Z,0.00
2018-09-03T01:53:28.366Z,0.00
2018-09-03T01:54:28.387Z,0.00
2018-09-03T01:55:28.356Z,0.00
2018-09-03T01:56:28.332Z,0.00
2018-09-03T01:57:28.341Z,0.00
2018-09-03T01:58:28.338Z,0.00
2018-09-03T01:59:28.300Z,0.00
2018-09-03T02:00:28.335Z,0.00
2018-09-03T02:01:28.279Z,0.00
2018-09-03T02:02:28.266Z,0.00
2018-09-03T02:03:28.262Z,0.00
2018-09-03T02:04:28.257Z,0.00
2018-09-03T02:05:28.234Z,0.00
2018-09-03T02:06:28.255Z,0.00
2018-09-03T02:07:28.214Z,0.00
2018-09-03T02:08:28.203Z,0.00
2018-09-03T02:09:28.196Z,0.00
2018-09-03T02:10:28.191Z,0.00
2018-09-03T02:11:28.169Z,0.00
2018-09-03T02:12:28.189Z,0.00
2018-09-03T02:13:28.147Z,0.00
2018-09-03T02:14:28.137Z,0.00
2018-09-03T02:15:28.131Z,0.00
2018-09-03T02:16:28.122Z,0.00
2018-09-03T02:17:28.105Z,0.00
2018-09-03T02:18:28.129Z,0.00
2018-09-03T02:19:28.080Z,0.00
2018-09-03T02:20:28.073Z,0.00
2018-09-03T02:21:28.059Z,0.00
2018-09-03T02:22:28.059Z,0.00
2018-09-03T02:23:28.036Z,0.00
2018-09-03T02:24:28.057Z,0.00
2018-09-03T02:25:28.015Z,0.00
2018-09-03T02:26:28.006Z,0.00
2018-09-03T02:27:27.992Z,0.00
2018-09-03T02:28:27.997Z,0.00
2018-09-03T02:29:27.970Z,0.00
2018-09-03T02:30:27.990Z,0.00
2018-09-03T02:31:27.952Z,0.00
2018-09-03T02:32:27.947Z,0.00
2018-09-03T02:33:27.928Z,0.00
2018-09-03T02:34:27.930Z,0.00
2018-09-03T02:35:27.907Z,0.00
2018-09-03T02:36:27.936Z,0.00
2018-09-03T02:37:27.886Z,0.00
2018-09-03T02:38:27.881Z,0.00
2018-09-03T02:39:27.863Z,0.00
2018-09-03T02:40:27.864Z,0.00
2018-09-03T02:41:27.840Z,0.00
2018-09-03T02:42:27.863Z,0.00
2018-09-03T02:43:27.820Z,0.00
2018-09-03T02:44:27.809Z,0.00
2018-09-03T02:45:27.798Z,0.00
2018-09-03T02:46:27.805Z,0.00
2018-09-03T02:47:27.778Z,0.00
2018-09-03T02:48:27.820Z,0.00
2018-09-03T02:49:27.754Z,0.00
2018-09-03T02:50:27.742Z,0.00
2018-09-03T02:51:27.732Z,0.00
2018-09-03T02:52:27.745Z,0.00
2018-09-03T02:53:27.710Z,0.00
2018-09-03T02:54:27.742Z,0.00
2018-09-03T02:55:27.690Z,0.00
2018-09-03T02:56:27.677Z,0.00
2018-09-03T02:57:27.665Z,0.00
2018-09-03T02:58:27.666Z,0.00
2018-09-03T02:59:27.644Z,0.00
2018-09-03T03:00:27.667Z,0.00
2018-09-03T03:01:27.624Z,0.00
2018-09-03T03:02:27.614Z,0.00
2018-09-03T03:03:27.614Z,0.00
2018-09-03T03:04:27.591Z,0.00
2018-09-03T03:05:27.580Z,0.00
2018-09-03T03:06:27.602Z,0.00
2018-09-03T03:07:27.559Z,0.00
2018-09-03T03:08:27.547Z,0.00
2018-09-03T03:09:27.551Z,0.00
2018-09-03T03:10:27.529Z,0.00
2018-09-03T03:11:27.514Z,0.00
2018-09-03T03:12:27.542Z,0.00
2018-09-03T03:13:27.492Z,0.00
2018-09-03T03:14:27.483Z,0.00
2018-09-03T03:15:27.489Z,0.00
2018-09-03T03:16:27.464Z,0.00
2018-09-03T03:17:27.449Z,0.00
2018-09-03T03:18:27.481Z,0.00
2018-09-03T03:19:27.439Z,0.00
2018-09-03T03:20:27.416Z,0.00
2018-09-03T03:21:27.417Z,0.00
2018-09-03T03:22:27.397Z,0.00
2018-09-03T03:23:27.385Z,0.00
2018-09-03T03:24:27.407Z,0.00
2018-09-03T03:25:27.361Z,0.00
2018-09-03T03:26:27.350Z,0.00
2018-09-03T03:27:27.369Z,0.00
2018-09-03T03:28:27.328Z,0.00
2018-09-03T03:29:27.321Z,0.00
2018-09-03T03:30:27.346Z,0.00
2018-09-03T03:31:27.300Z,0.00
2018-09-03T03:32:27.285Z,0.00
2018-09-03T03:33:27.282Z,0.00
2018-09-03T03:34:27.262Z,0.00
2018-09-03T03:35:27.252Z,0.00
2018-09-03T03:36:27.272Z,0.00
2018-09-03T03:37:27.232Z,0.00
2018-09-03T03:38:27.219Z,0.00
2018-09-03T03:39:27.208Z,0.00
2018-09-03T03:40:27.225Z,0.00
2018-09-03T03:41:27.186Z,0.00
2018-09-03T03:42:27.210Z,0.00
2018-09-03T03:43:27.166Z,0.00
2018-09-03T03:44:27.158Z,0.00
2018-09-03T03:45:27.164Z,0.00
2018-09-03T03:46:27.300Z,0.00
2018-09-03T03:47:27.157Z,0.00
2018-09-03T03:48:27.173Z,0.00
2018-09-03T03:49:27.101Z,0.00
2018-09-03T03:50:27.311Z,0.00
2018-09-03T03:51:27.078Z,0.00
2018-09-03T03:52:27.069Z,0.00
2018-09-03T03:53:27.062Z,0.00
2018-09-03T03:54:27.096Z,0.00
2018-09-03T03:55:27.044Z,0.00
2018-09-03T03:56:27.056Z,0.00
2018-09-03T03:57:27.018Z,0.00
2018-09-03T03:58:27.004Z,0.00
2018-09-03T03:59:26.992Z,0.00
2018-09-03T04:00:27.016Z,0.00
2018-09-03T04:01:26.983Z,0.00
2018-09-03T04:02:26.958Z,0.00
2018-09-03T04:03:26.992Z,0.00
2018-09-03T04:04:26.943Z,0.00
2018-09-03T04:05:26.954Z,0.00
2018-09-03T04:06:26.994Z,0.00
2018-09-03T04:07:26.907Z,0.00
2018-09-03T04:08:26.894Z,0.00
2018-09-03T04:09:26.901Z,0.00
2018-09-03T04:10:26.875Z,0.00
2018-09-03T04:11:26.869Z,0.00
2018-09-03T04:12:26.938Z,0.00
2018-09-03T04:13:26.848Z,0.00
2018-09-03T04:14:26.850Z,0.00
2018-09-03T04:15:26.816Z,0.00
2018-09-03T04:16:26.807Z,0.00
2018-09-03T04:17:26.793Z,0.00
2018-09-03T04:18:26.836Z,0.00
2018-09-03T04:19:26.773Z,0.00
2018-09-03T04:20:26.767Z,0.00
2018-09-03T04:21:26.758Z,0.00
2018-09-03T04:22:26.743Z,0.00
2018-09-03T04:23:26.913Z,4.00
2018-09-03T04:24:26.759Z,4.00
2018-09-03T04:25:26.740Z,0.00
2018-09-03T04:26:26.704Z,4.00
2018-09-03T04:27:26.686Z,4.00
2018-09-03T04:28:26.967Z,8.00
2018-09-03T04:29:26.876Z,4.00
2018-09-03T04:30:26.807Z,8.00
2018-09-03T04:31:26.692Z,8.00
2018-09-03T04:32:26.700Z,8.00
2018-09-03T04:33:26.654Z,12.00
2018-09-03T04:34:26.661Z,20.00
2018-09-03T04:35:26.599Z,24.00
2018-09-03T04:36:26.629Z,28.00
2018-09-03T04:37:26.579Z,36.00
2018-09-03T04:38:26.581Z,44.00
2018-09-03T04:39:26.558Z,52.00
2018-09-03T04:40:26.546Z,60.00
2018-09-03T04:41:26.565Z,68.00
2018-09-03T04:42:26.572Z,76.00
2018-09-03T04:43:26.524Z,84.00
2018-09-03T04:44:26.524Z,88.00
2018-09-03T04:45:26.493Z,96.00
2018-09-03T04:46:26.478Z,100.00
2018-09-03T04:47:26.467Z,108.00
2018-09-03T04:48:26.548Z,120.00
2018-09-03T04:49:26.459Z,132.00
2018-09-03T04:50:26.441Z,144.00
2018-09-03T04:51:26.455Z,156.00
2018-09-03T04:52:26.415Z,168.00
2018-09-03T04:53:26.402Z,184.00
2018-09-03T04:54:26.435Z,208.00
2018-09-03T04:55:26.389Z,228.00
2018-09-03T04:56:26.376Z,248.00
2018-09-03T04:57:26.383Z,272.00
2018-09-03T04:58:34.186Z,284.00
2018-09-03T04:59:35.645Z,304.00
2018-09-03T05:00:26.343Z,312.00
2018-09-03T05:01:26.326Z,324.00
2018-09-03T05:02:26.314Z,336.00
2018-09-03T05:03:26.300Z,344.00
2018-09-03T05:04:26.289Z,352.00
2018-09-03T05:05:26.385Z,360.00
2018-09-03T05:06:26.273Z,364.00
2018-09-03T05:07:26.253Z,368.00
2018-09-03T05:08:26.238Z,368.00
2018-09-03T05:09:26.230Z,380.00
2018-09-03T05:10:26.219Z,404.00
2018-09-03T05:11:26.245Z,432.00
2018-09-03T05:12:26.198Z,452.00
2018-09-03T05:13:26.194Z,464.00
2018-09-03T05:14:26.173Z,472.00
2018-09-03T05:15:26.163Z,480.00
2018-09-03T05:16:26.154Z,512.00
2018-09-03T05:17:26.190Z,556.00
2018-09-03T05:18:26.129Z,612.00
2018-09-03T05:19:26.121Z,680.00
2018-09-03T05:20:26.109Z,756.00
2018-09-03T05:21:26.097Z,844.00
2018-09-03T05:22:26.088Z,944.00
2018-09-03T05:23:26.116Z,1044.00
2018-09-03T05:24:26.068Z,1128.00
2018-09-03T05:25:26.064Z,1208.00
2018-09-03T05:26:26.055Z,1304.00
2018-09-03T05:27:26.042Z,1408.00
2018-09-03T05:28:26.026Z,1512.00
2018-09-03T05:29:26.046Z,1636.00
2018-09-03T05:30:26.007Z,1776.00
2018-09-03T05:31:26.040Z,1920.00
2018-09-03T05:32:25.984Z,2032.00
2018-09-03T05:33:25.969Z,2096.00
2018-09-03T05:34:25.958Z,2080.00
2018-09-03T05:35:25.990Z,2028.00
2018-09-03T05:36:25.936Z,1996.00
2018-09-03T05:37:25.924Z,2016.00
2018-09-03T05:38:25.913Z,2072.00
2018-09-03T05:39:25.901Z,2160.00
2018-09-03T05:40:25.904Z,2252.00
2018-09-03T05:41:25.968Z,2356.00
2018-09-03T05:42:25.882Z,2484.00
2018-09-03T05:43:26.044Z,2616.00
2018-09-03T05:44:25.847Z,2768.00
2018-09-03T05:45:25.838Z,2928.00
2018-09-03T05:46:25.835Z,3084.00
2018-09-03T05:47:25.862Z,3216.00
2018-09-03T05:48:25.811Z,3296.00
2018-09-03T05:49:25.807Z,3352.00
2018-09-03T05:50:25.923Z,3424.00
2018-09-03T05:51:25.780Z,3516.00
2018-09-03T05:52:25.765Z,3580.00
2018-09-03T05:53:25.792Z,3596.00
2018-09-03T05:54:25.749Z,3556.00
2018-09-03T05:55:25.734Z,3496.00
2018-09-03T05:56:25.720Z,3432.00
2018-09-03T05:57:25.716Z,3356.00
2018-09-03T05:58:25.695Z,3292.00
2018-09-03T05:59:25.715Z,3256.00
2018-09-03T06:00:25.671Z,3276.00
2018-09-03T06:01:25.660Z,3360.00
2018-09-03T06:02:25.663Z,3488.00
2018-09-03T06:03:25.638Z,3628.00
2018-09-03T06:04:25.627Z,3756.00
2018-09-03T06:05:25.653Z,3876.00
2018-09-03T06:06:25.608Z,3972.00
2018-09-03T06:07:25.594Z,4060.00
2018-09-03T06:08:25.595Z,4212.00
2018-09-03T06:09:25.604Z,4392.00
2018-09-03T06:10:25.663Z,4536.00
2018-09-03T06:11:25.615Z,4692.00
2018-09-03T06:12:25.547Z,4880.00
2018-09-03T06:13:25.530Z,5000.00
2018-09-03T06:14:25.516Z,4984.00
2018-09-03T06:15:25.508Z,4820.00
2018-09-03T06:16:25.494Z,4604.00
2018-09-03T06:17:25.514Z,4456.00
2018-09-03T06:18:25.480Z,4444.00
2018-09-03T06:19:25.474Z,4620.00
2018-09-03T06:20:25.457Z,4848.00
2018-09-03T06:21:25.454Z,5000.00
2018-09-03T06:22:25.448Z,5076.00
2018-09-03T06:23:25.456Z,5116.00
2018-09-03T06:24:25.417Z,5132.00
2018-09-03T06:25:25.399Z,4928.00
2018-09-03T06:26:25.398Z,4652.00
2018-09-03T06:27:25.378Z,4592.00
2018-09-03T06:28:25.368Z,4624.00
2018-09-03T06:29:25.443Z,4652.00
2018-09-03T06:30:25.359Z,4780.00
2018-09-03T06:31:25.344Z,5032.00
2018-09-03T06:32:25.323Z,5316.00
2018-09-03T06:33:25.323Z,5600.00
2018-09-03T06:34:25.298Z,5884.00
2018-09-03T06:35:25.325Z,6272.00
2018-09-03T06:36:25.295Z,6532.00
2018-09-03T06:37:25.302Z,6920.00
2018-09-03T06:38:25.264Z,7428.00
2018-09-03T06:39:25.279Z,7976.00
2018-09-03T06:40:25.251Z,8568.00
2018-09-03T06:41:25.275Z,8888.00
2018-09-03T06:42:25.228Z,8956.00
2018-09-03T06:43:25.214Z,9088.00
2018-09-03T06:44:25.199Z,9280.00
2018-09-03T06:45:25.183Z,9484.00
2018-09-03T06:46:25.213Z,9748.00
2018-09-03T06:47:25.246Z,10040.00
2018-09-03T06:48:25.179Z,10344.00
2018-09-03T06:49:25.136Z,10532.00
2018-09-03T06:50:25.132Z,10672.00
2018-09-03T06:51:25.121Z,10864.00
2018-09-03T06:52:25.099Z,11048.00
2018-09-03T06:53:25.206Z,11224.00
2018-09-03T06:54:25.077Z,11160.00
2018-09-03T06:55:25.075Z,11168.00
2018-09-03T06:56:25.069Z,11164.00
2018-09-03T06:57:25.050Z,11112.00
2018-09-03T06:58:25.040Z,11056.00
2018-09-03T06:59:25.120Z,10464.00
2018-09-03T07:00:25.062Z,9852.00
2018-09-03T07:01:25.016Z,9572.00
2018-09-03T07:02:24.992Z,9516.00
2018-09-03T07:03:24.984Z,9576.00
2018-09-03T07:04:24.978Z,9764.00
2018-09-03T07:05:25.029Z,10032.00
2018-09-03T07:06:24.959Z,10340.00
2018-09-03T07:07:24.947Z,10668.00
2018-09-03T07:08:24.937Z,10904.00
2018-09-03T07:09:24.917Z,10988.00
2018-09-03T07:10:24.912Z,11036.00
2018-09-03T07:11:24.928Z,11160.00
2018-09-03T07:12:24.891Z,11384.00
2018-09-03T07:13:24.875Z,11596.00
2018-09-03T07:14:24.867Z,11748.00
2018-09-03T07:15:24.865Z,11896.00
2018-09-03T07:16:24.858Z,12016.00
2018-09-03T07:17:24.882Z,12088.00
2018-09-03T07:18:24.835Z,12116.00
2018-09-03T07:19:24.838Z,12196.00
2018-09-03T07:20:24.805Z,12456.00
2018-09-03T07:21:24.814Z,12820.00
2018-09-03T07:22:24.814Z,13124.00
2018-09-03T07:23:24.813Z,13356.00
2018-09-03T07:24:24.755Z,13540.00
2018-09-03T07:25:24.750Z,13772.00
2018-09-03T07:26:24.739Z,14064.00
2018-09-03T07:27:24.729Z,14344.00
2018-09-03T07:28:24.717Z,14628.00
2018-09-03T07:29:24.730Z,14768.00
2018-09-03T07:30:24.690Z,14684.00
2018-09-03T07:31:24.702Z,14440.00
2018-09-03T07:32:24.679Z,14136.00
2018-09-03T07:33:24.661Z,13828.00
2018-09-03T07:34:24.668Z,13624.00
2018-09-03T07:35:24.667Z,13528.00
2018-09-03T07:36:24.619Z,13552.00
2018-09-03T07:37:24.649Z,13628.00
2018-09-03T07:38:24.609Z,13588.00
2018-09-03T07:39:24.594Z,13460.00
2018-09-03T07:40:24.583Z,13360.00
2018-09-03T07:41:24.608Z,13280.00
2018-09-03T07:42:24.573Z,13156.00
2018-09-03T07:43:24.559Z,12852.00
2018-09-03T07:44:24.536Z,12344.00
2018-09-03T07:45:24.526Z,11684.00
2018-09-03T07:46:24.522Z,11104.00
2018-09-03T07:47:24.548Z,10764.00
2018-09-03T07:48:24.504Z,10496.00
2018-09-03T07:49:24.493Z,10084.00
2018-09-03T07:50:24.498Z,9496.00
2018-09-03T07:51:24.460Z,9176.00
2018-09-03T07:52:24.452Z,9504.00
2018-09-03T07:53:24.476Z,10340.00
2018-09-03T07:54:24.434Z,11212.00
2018-09-03T07:55:24.477Z,11880.00
2018-09-03T07:56:24.407Z,12436.00
2018-09-03T07:57:24.396Z,13392.00
2018-09-03T07:58:24.387Z,14976.00
2018-09-03T07:59:24.420Z,17152.00
2018-09-03T08:00:24.371Z,18112.00
2018-09-03T08:01:24.360Z,17504.00
2018-09-03T08:02:24.352Z,15784.00
2018-09-03T08:03:24.331Z,14524.00
2018-09-03T08:04:24.363Z,13960.00
2018-09-03T08:05:24.343Z,13852.00
2018-09-03T08:06:24.308Z,13552.00
2018-09-03T08:07:24.353Z,12964.00
2018-09-03T08:08:24.314Z,12248.00
2018-09-03T08:09:24.275Z,11392.00
2018-09-03T08:10:24.269Z,11104.00
2018-09-03T08:11:24.341Z,11184.00
2018-09-03T08:12:24.249Z,11248.00
2018-09-03T08:13:24.244Z,11124.00
2018-09-03T08:14:24.227Z,10772.00
2018-09-03T08:15:24.211Z,10144.00
2018-09-03T08:16:24.206Z,9456.00
2018-09-03T08:17:24.268Z,8868.00
2018-09-03T08:18:24.176Z,8524.00
2018-09-03T08:19:24.167Z,8480.00
2018-09-03T08:20:24.168Z,8684.00
2018-09-03T08:21:24.166Z,9096.00
2018-09-03T08:22:24.145Z,9624.00
2018-09-03T08:23:24.158Z,10192.00
2018-09-03T08:24:24.111Z,10744.00
2018-09-03T08:25:24.101Z,11116.00
2018-09-03T08:26:24.087Z,11296.00
2018-09-03T08:27:24.085Z,11392.00
2018-09-03T08:28:24.104Z,11448.00
2018-09-03T08:29:24.113Z,11312.00
2018-09-03T08:30:24.057Z,11008.00
2018-09-03T08:31:24.039Z,10712.00
2018-09-03T08:32:24.024Z,10732.00
2018-09-03T08:33:24.016Z,11076.00
2018-09-03T08:34:24.034Z,11280.00
2018-09-03T08:35:24.076Z,11056.00
2018-09-03T08:36:23.984Z,10488.00
2018-09-03T08:37:23.977Z,9804.00
2018-09-03T08:38:23.973Z,9304.00
2018-09-03T08:39:23.956Z,9268.00
2018-09-03T08:40:23.937Z,9688.00
2018-09-03T08:41:23.995Z,10488.00
2018-09-03T08:42:23.935Z,11292.00
2018-09-03T08:43:23.904Z,11600.00
2018-09-03T08:44:23.896Z,10716.00
2018-09-03T08:45:23.882Z,9340.00
2018-09-03T08:46:23.873Z,8484.00
2018-09-03T08:47:23.911Z,8396.00
2018-09-03T08:48:23.865Z,8688.00
2018-09-03T08:49:23.848Z,9020.00
2018-09-03T08:50:23.856Z,9536.00
2018-09-03T08:51:23.838Z,10284.00
2018-09-03T08:52:23.881Z,11156.00
2018-09-03T08:53:23.854Z,12456.00
2018-09-03T08:54:23.815Z,14160.00
2018-09-03T08:55:23.775Z,15844.00
2018-09-03T08:56:23.803Z,17408.00
2018-09-03T08:57:23.758Z,18176.00
2018-09-03T08:58:23.755Z,17984.00
2018-09-03T08:59:23.777Z,17440.00
2018-09-03T09:00:23.734Z,16604.00
2018-09-03T09:01:23.763Z,15972.00
2018-09-03T09:02:23.711Z,15672.00
2018-09-03T09:03:23.721Z,15720.00
2018-09-03T09:04:23.684Z,15960.00
2018-09-03T09:05:23.699Z,16280.00
2018-09-03T09:06:23.699Z,16816.00
2018-09-03T09:07:23.667Z,17696.00
2018-09-03T09:08:23.655Z,18432.00
2018-09-03T09:09:23.626Z,18624.00
2018-09-03T09:10:23.610Z,18560.00
2018-09-03T09:11:23.650Z,18528.00
2018-09-03T09:12:23.591Z,18560.00
2018-09-03T09:13:23.585Z,18368.00
2018-09-03T09:14:23.618Z,17728.00
2018-09-03T09:15:23.579Z,16380.00
2018-09-03T09:16:23.592Z,14804.00
2018-09-03T09:17:23.613Z,13528.00
2018-09-03T09:18:23.539Z,12520.00
2018-09-03T09:19:23.521Z,11676.00
2018-09-03T09:20:23.508Z,11052.00
2018-09-03T09:21:23.505Z,10832.00
2018-09-03T09:22:23.504Z,10692.00
2018-09-03T09:23:23.504Z,10596.00
2018-09-03T09:24:23.509Z,10556.00
2018-09-03T09:25:23.455Z,10504.00
2018-09-03T09:26:23.446Z,10408.00
2018-09-03T09:27:23.443Z,10296.00
2018-09-03T09:28:23.423Z,10200.00
2018-09-03T09:29:23.454Z,10128.00
2018-09-03T09:30:23.447Z,9948.00
2018-09-03T09:31:23.393Z,9580.00
2018-09-03T09:32:23.388Z,9224.00
2018-09-03T09:33:23.374Z,8972.00
2018-09-03T09:34:23.391Z,8868.00
2018-09-03T09:35:23.381Z,8936.00
2018-09-03T09:36:23.348Z,9144.00
2018-09-03T09:37:23.348Z,9460.00
2018-09-03T09:38:23.352Z,9916.00
2018-09-03T09:39:23.312Z,10572.00
2018-09-03T09:40:23.328Z,11444.00
2018-09-03T09:41:23.329Z,12508.00
2018-09-03T09:42:23.271Z,13788.00
2018-09-03T09:43:23.289Z,15332.00
2018-09-03T09:44:23.284Z,17088.00
2018-09-03T09:45:23.246Z,18816.00
2018-09-03T09:46:23.244Z,20448.00
2018-09-03T09:47:23.340Z,21664.00
2018-09-03T09:48:23.219Z,22912.00
2018-09-03T09:49:23.229Z,24256.00
2018-09-03T09:50:23.211Z,24480.00
2018-09-03T09:51:23.202Z,23808.00
2018-09-03T09:52:23.189Z,22144.00
2018-09-03T09:53:23.186Z,20032.00
2018-09-03T09:54:23.188Z,18080.00
2018-09-03T09:55:23.139Z,16488.00
2018-09-03T09:56:23.131Z,15536.00
2018-09-03T09:57:23.113Z,15292.00
2018-09-03T09:58:23.108Z,15908.00
2018-09-03T09:59:23.122Z,17472.00
2018-09-03T10:00:23.082Z,19584.00
2018-09-03T10:01:23.082Z,22304.00
2018-09-03T10:02:23.065Z,23936.00
2018-09-03T10:03:23.059Z,23264.00
2018-09-03T10:04:23.111Z,22400.00
2018-09-03T10:05:23.080Z,22816.00
2018-09-03T10:06:23.024Z,23072.00
2018-09-03T10:07:23.004Z,22464.00
2018-09-03T10:08:22.992Z,21792.00
2018-09-03T10:09:22.980Z,20928.00
2018-09-03T10:10:22.975Z,21632.00
2018-09-03T10:11:22.984Z,22848.00
2018-09-03T10:12:22.948Z,23328.00
2018-09-03T10:13:22.932Z,22368.00
2018-09-03T10:14:22.927Z,22240.00
2018-09-03T10:15:22.946Z,21536.00
2018-09-03T10:16:22.903Z,21056.00
2018-09-03T10:17:22.933Z,20512.00
2018-09-03T10:18:22.879Z,19840.00
2018-09-03T10:19:22.899Z,19392.00
2018-09-03T10:20:22.862Z,19136.00
2018-09-03T10:21:22.847Z,19200.00
2018-09-03T10:22:22.856Z,19808.00
2018-09-03T10:23:22.876Z,20960.00
2018-09-03T10:24:22.810Z,21920.00
2018-09-03T10:25:22.802Z,22400.00
2018-09-03T10:26:22.874Z,23104.00
2018-09-03T10:27:22.785Z,23872.00
2018-09-03T10:28:22.790Z,24576.00
2018-09-03T10:29:22.789Z,25280.00
2018-09-03T10:30:22.754Z,25952.00
2018-09-03T10:31:22.742Z,26432.00
2018-09-03T10:32:22.732Z,26208.00
2018-09-03T10:33:22.718Z,25600.00
2018-09-03T10:34:22.742Z,24960.00
2018-09-03T10:35:22.723Z,24704.00
2018-09-03T10:36:22.685Z,24320.00
2018-09-03T10:37:22.675Z,22816.00
2018-09-03T10:38:22.663Z,23072.00
2018-09-03T10:39:22.657Z,24416.00
2018-09-03T10:40:22.683Z,25504.00
2018-09-03T10:41:22.667Z,26080.00
2018-09-03T10:42:22.654Z,26464.00
2018-09-03T10:43:22.610Z,26816.00
2018-09-03T10:44:22.599Z,27232.00
2018-09-03T10:45:22.590Z,28384.00
2018-09-03T10:46:22.589Z,30688.00
2018-09-03T10:47:22.643Z,30624.00
2018-09-03T10:48:22.557Z,31552.00
2018-09-03T10:49:22.552Z,28544.00
2018-09-03T10:50:22.552Z,24960.00
2018-09-03T10:51:22.526Z,22784.00
2018-09-03T10:52:22.510Z,21408.00
2018-09-03T10:53:22.558Z,19936.00
2018-09-03T10:54:22.495Z,19136.00
2018-09-03T10:55:22.484Z,18848.00
2018-09-03T10:56:22.476Z,18880.00
2018-09-03T10:57:22.465Z,19136.00
2018-09-03T10:58:22.453Z,19840.00
2018-09-03T10:59:22.512Z,21024.00
2018-09-03T11:00:22.423Z,22208.00
2018-09-03T11:01:22.413Z,23072.00
2018-09-03T11:02:22.404Z,23392.00
2018-09-03T11:03:22.396Z,23456.00
2018-09-03T11:04:22.388Z,23648.00
2018-09-03T11:05:43.396Z,23936.00
2018-09-03T11:06:22.369Z,24480.00
2018-09-03T11:07:22.352Z,25248.00
2018-09-03T11:08:22.349Z,25920.00
2018-09-03T11:09:22.339Z,26176.00
2018-09-03T11:10:22.321Z,26112.00
2018-09-03T11:11:22.376Z,25856.00
2018-09-03T11:12:22.312Z,25728.00
2018-09-03T11:13:22.291Z,25792.00
2018-09-03T11:14:22.410Z,25984.00
2018-09-03T11:15:22.271Z,26272.00
2018-09-03T11:16:22.269Z,26400.00
2018-09-03T11:17:22.306Z,26368.00
2018-09-03T11:18:22.247Z,26144.00
2018-09-03T11:19:22.232Z,25888.00
2018-09-03T11:20:22.212Z,25888.00
2018-09-03T11:21:22.321Z,26016.00
2018-09-03T11:22:22.259Z,26048.00
2018-09-03T11:23:22.224Z,26048.00
2018-09-03T11:24:22.173Z,25920.00
2018-09-03T11:25:22.165Z,25888.00
2018-09-03T11:26:22.169Z,25984.00
2018-09-03T11:27:22.142Z,26304.00
2018-09-03T11:28:22.142Z,26688.00
2018-09-03T11:29:22.224Z,27296.00
2018-09-03T11:30:22.113Z,27744.00
2018-09-03T11:31:22.101Z,27648.00
2018-09-03T11:32:22.096Z,26816.00
2018-09-03T11:33:22.084Z,25920.00
2018-09-03T11:34:22.069Z,25536.00
2018-09-03T11:35:22.110Z,25472.00
2018-09-03T11:36:22.044Z,25184.00
2018-09-03T11:37:22.037Z,24704.00
2018-09-03T11:38:22.024Z,24160.00
2018-09-03T11:39:22.015Z,23776.00
2018-09-03T11:40:22.001Z,23328.00
2018-09-03T11:41:22.047Z,22560.00
2018-09-03T11:42:21.992Z,21696.00
2018-09-03T11:43:21.970Z,21152.00
2018-09-03T11:44:21.964Z,20896.00
2018-09-03T11:45:21.951Z,20608.00
2018-09-03T11:46:21.941Z,20192.00
2018-09-03T11:47:21.969Z,20288.00
2018-09-03T11:48:21.916Z,20800.00
2018-09-03T11:49:21.910Z,21568.00
2018-09-03T11:50:21.909Z,22304.00
2018-09-03T11:51:21.898Z,22880.00
2018-09-03T11:52:21.880Z,23360.00
2018-09-03T11:53:21.907Z,23712.00
2018-09-03T11:54:21.915Z,23968.00
2018-09-03T11:55:21.845Z,24096.00
2018-09-03T11:56:21.837Z,24192.00
2018-09-03T11:57:21.824Z,24384.00
2018-09-03T11:58:21.816Z,24672.00
2018-09-03T11:59:21.868Z,24704.00
2018-09-03T12:00:21.812Z,24768.00
2018-09-03T12:01:21.800Z,24864.00
2018-09-03T12:02:21.777Z,24832.00
2018-09-03T12:03:21.765Z,24672.00
2018-09-03T12:04:21.751Z,24384.00
2018-09-03T12:05:21.775Z,24032.00
2018-09-03T12:06:21.735Z,24864.00
2018-09-03T12:07:21.745Z,29056.00
2018-09-03T12:08:21.709Z,31360.00
2018-09-03T12:09:21.698Z,33728.00
2018-09-03T12:10:21.689Z,32960.00
2018-09-03T12:11:21.727Z,32160.00
2018-09-03T12:12:21.663Z,29920.00
2018-09-03T12:13:21.668Z,28832.00
2018-09-03T12:14:21.650Z,28992.00
2018-09-03T12:15:21.661Z,29952.00
2018-09-03T12:16:21.655Z,30208.00
2018-09-03T12:17:21.637Z,31168.00
2018-09-03T12:18:21.609Z,32128.00
2018-09-03T12:19:21.619Z,32224.00
2018-09-03T12:20:21.582Z,33056.00
2018-09-03T12:21:21.566Z,33760.00
2018-09-03T12:22:21.555Z,32192.00
2018-09-03T12:23:21.577Z,31616.00